createdAt,value
2023-06-29T00:00:32.529Z,16.73
2023-06-29T00:03:03.156Z,16.72
2023-06-29T00:05:34.105Z,16.71
2023-06-29T00:08:04.213Z,16.67
2023-06-29T00:10:34.392Z,16.63
2023-06-29T00:13:07.130Z,16.56
2023-06-29T00:15:37.204Z,16.52
2023-06-29T00:18:07.387Z,16.54
2023-06-29T00:20:37.569Z,16.56
2023-06-29T00:23:07.698Z,16.58
2023-06-29T00:25:39.123Z,16.63
2023-06-29T00:30:55.888Z,16.67
2023-06-29T00:33:26.164Z,16.60
2023-06-29T00:35:56.257Z,16.54
2023-06-29T00:38:26.582Z,16.53
2023-06-29T00:40:56.994Z,16.50
2023-06-29T00:43:31.171Z,16.46
2023-06-29T00:46:03.532Z,16.43
2023-06-29T00:48:35.096Z,16.44
2023-06-29T00:51:05.945Z,16.43
2023-06-29T00:53:36.132Z,16.39
2023-06-29T00:56:06.623Z,16.33
2023-06-29T00:58:40.104Z,16.27
2023-06-29T01:01:10.312Z,16.24
2023-06-29T01:03:41.970Z,16.21
2023-06-29T01:06:16.319Z,16.21
2023-06-29T01:08:52.657Z,16.26
2023-06-29T01:11:24.372Z,16.27
2023-06-29T01:13:58.778Z,16.27
2023-06-29T01:16:29.538Z,16.22
2023-06-29T01:19:01.580Z,16.16
2023-06-29T01:21:34.475Z,16.11
2023-06-29T01:24:06.300Z,16.12
2023-06-29T01:26:39.835Z,16.09
2023-06-29T01:29:10.097Z,16.08
2023-06-29T01:31:40.183Z,16.06
2023-06-29T01:34:10.402Z,16.02
2023-06-29T01:36:48.344Z,16.03
2023-06-29T01:39:27.827Z,16.07
2023-06-29T01:42:03.047Z,16.07
2023-06-29T01:44:33.189Z,16.06
2023-06-29T01:47:04.812Z,16.06
2023-06-29T01:49:35.257Z,16.05
2023-06-29T01:52:06.294Z,16.06
2023-06-29T01:54:36.567Z,16.05
2023-06-29T01:57:11.902Z,16.03
2023-06-29T01:59:42.343Z,15.94
2023-06-29T02:02:12.545Z,15.86
2023-06-29T02:04:43.556Z,15.77
2023-06-29T02:07:14.322Z,15.73
2023-06-29T02:09:44.950Z,15.72
2023-06-29T02:12:17.805Z,15.71
2023-06-29T02:14:48.512Z,15.71
2023-06-29T02:17:19.950Z,15.66
2023-06-29T02:19:51.375Z,15.61
2023-06-29T02:22:21.569Z,15.58
2023-06-29T02:24:54.734Z,15.58
2023-06-29T02:27:27.524Z,15.58
2023-06-29T02:29:57.693Z,15.58
2023-06-29T02:32:27.776Z,15.55
2023-06-29T02:34:57.940Z,15.53
2023-06-29T02:37:28.312Z,15.55
2023-06-29T02:39:58.483Z,15.57
2023-06-29T02:42:31.455Z,15.63
2023-06-29T02:45:01.621Z,15.65
2023-06-29T02:47:34.475Z,15.65
2023-06-29T02:50:04.680Z,15.61
2023-06-29T02:52:43.595Z,15.56
2023-06-29T02:55:14.218Z,15.52
2023-06-29T02:57:47.101Z,15.50
2023-06-29T03:00:18.662Z,15.48
2023-06-29T03:02:48.908Z,15.49
2023-06-29T03:05:19.479Z,15.51
2023-06-29T03:07:49.539Z,15.52
2023-06-29T03:10:19.744Z,15.50
2023-06-29T03:12:52.589Z,15.46
2023-06-29T03:15:23.079Z,15.41
2023-06-29T03:17:53.296Z,15.38
2023-06-29T03:20:23.542Z,15.38
2023-06-29T03:22:53.708Z,15.38
2023-06-29T03:25:23.920Z,15.39
2023-06-29T03:27:57.506Z,15.39
2023-06-29T03:30:27.664Z,15.40
2023-06-29T03:33:00.323Z,15.41
2023-06-29T03:35:30.443Z,15.42
2023-06-29T03:38:00.571Z,15.44
2023-06-29T03:40:30.658Z,15.46
2023-06-29T03:43:03.402Z,15.46
2023-06-29T03:45:34.374Z,15.47
2023-06-29T03:48:04.645Z,15.53
2023-06-29T03:50:34.957Z,15.57
2023-06-29T03:53:05.266Z,15.62
2023-06-29T03:55:35.431Z,15.72
2023-06-29T03:58:08.191Z,15.80
2023-06-29T04:00:38.494Z,15.88
2023-06-29T04:03:08.715Z,15.94
2023-06-29T04:05:38.944Z,15.98
2023-06-29T04:08:09.069Z,16.03
2023-06-29T04:10:39.526Z,16.07
2023-06-29T04:13:12.383Z,16.14
2023-06-29T04:15:42.933Z,16.19
2023-06-29T04:18:13.445Z,16.27
2023-06-29T04:20:43.692Z,16.33
2023-06-29T04:23:16.411Z,16.38
2023-06-29T04:25:46.790Z,16.45
2023-06-29T04:28:19.585Z,16.55
2023-06-29T04:30:49.774Z,16.72
2023-06-29T04:33:21.125Z,16.92
2023-06-29T04:35:51.495Z,17.11
2023-06-29T04:38:24.285Z,17.31
2023-06-29T04:41:04.693Z,17.56
2023-06-29T04:43:40.299Z,17.85
2023-06-29T04:46:10.558Z,18.11
2023-06-29T04:48:40.978Z,18.41
2023-06-29T04:51:14.385Z,18.74
2023-06-29T04:53:45.069Z,19.05
2023-06-29T04:56:15.345Z,19.24
2023-06-29T04:58:48.115Z,19.30
2023-06-29T05:01:18.434Z,19.29
2023-06-29T05:03:48.795Z,19.27
2023-06-29T05:06:19.457Z,19.25
2023-06-29T05:08:49.723Z,19.24
2023-06-29T05:11:19.986Z,19.20
2023-06-29T05:13:52.834Z,19.14
2023-06-29T05:16:23.336Z,19.20
2023-06-29T05:18:53.598Z,19.27
2023-06-29T05:21:23.998Z,19.34
2023-06-29T05:23:55.219Z,19.41
2023-06-29T05:26:25.529Z,19.50
2023-06-29T05:29:05.223Z,19.63
2023-06-29T05:31:36.469Z,19.78
2023-06-29T05:34:06.653Z,19.90
2023-06-29T05:36:36.873Z,20.13
2023-06-29T05:39:08.247Z,20.40
2023-06-29T05:41:38.440Z,20.66
2023-06-29T05:44:11.585Z,20.91
2023-06-29T05:46:41.808Z,21.20
2023-06-29T05:49:11.933Z,21.49
2023-06-29T05:51:43.479Z,21.75
2023-06-29T05:54:13.720Z,22.04
2023-06-29T05:56:43.988Z,22.35
2023-06-29T05:59:16.937Z,22.61
2023-06-29T06:01:47.258Z,22.85
2023-06-29T06:04:17.799Z,23.08
2023-06-29T06:06:50.661Z,23.26
2023-06-29T06:09:20.907Z,23.44
2023-06-29T06:11:51.311Z,23.59
2023-06-29T06:14:24.219Z,23.70
2023-06-29T06:16:54.455Z,23.90
2023-06-29T06:19:24.720Z,24.08
2023-06-29T06:21:54.868Z,24.22
2023-06-29T06:24:25.415Z,24.38
2023-06-29T06:26:55.694Z,24.53
2023-06-29T06:29:28.822Z,24.56
2023-06-29T06:32:04.941Z,24.57
2023-06-29T06:34:36.707Z,24.65
2023-06-29T06:37:07.639Z,24.77
2023-06-29T06:39:37.856Z,24.91
2023-06-29T06:42:08.989Z,25.16
2023-06-29T06:44:53.972Z,25.42
2023-06-29T06:47:24.352Z,25.60
2023-06-29T06:49:54.661Z,25.77
2023-06-29T06:52:24.865Z,25.86
2023-06-29T06:54:55.513Z,25.98
2023-06-29T06:57:26.783Z,26.02
2023-06-29T06:59:59.799Z,26.22
2023-06-29T07:02:30.157Z,26.42
2023-06-29T07:05:00.525Z,26.56
2023-06-29T07:07:30.846Z,26.55
2023-06-29T07:10:01.133Z,26.56
2023-06-29T07:12:32.267Z,26.53
2023-06-29T07:15:05.122Z,26.58
2023-06-29T07:17:35.457Z,26.75
2023-06-29T07:25:30.044Z,26.99
2023-06-29T07:28:00.283Z,27.16
2023-06-29T07:30:33.283Z,27.37
2023-06-29T07:33:03.678Z,27.58
2023-06-29T07:35:33.922Z,27.81
2023-06-29T07:38:04.155Z,27.87
2023-06-29T07:40:34.381Z,27.91
2023-06-29T07:43:04.612Z,28.02
2023-06-29T07:45:37.635Z,27.93
2023-06-29T07:48:08.404Z,27.83
2023-06-29T07:50:38.833Z,27.56
2023-06-29T07:53:09.439Z,27.19
2023-06-29T07:55:39.735Z,26.83
2023-06-29T08:00:45.477Z,26.25
2023-06-29T08:03:15.619Z,26.03
2023-06-29T08:08:19.566Z,25.76
2023-06-29T08:10:52.941Z,25.75
2023-06-29T08:13:24.357Z,25.90
2023-06-29T08:15:57.575Z,26.31
2023-06-29T08:18:28.113Z,26.87
2023-06-29T08:20:58.457Z,27.32
2023-06-29T08:23:28.734Z,27.49
2023-06-29T08:25:58.960Z,27.52
2023-06-29T08:28:29.333Z,27.45
2023-06-29T08:31:02.991Z,27.29
2023-06-29T08:33:34.643Z,27.17
2023-06-29T08:36:05.077Z,27.00
2023-06-29T08:38:35.677Z,26.75
2023-06-29T08:41:08.702Z,26.50
2023-06-29T08:43:38.879Z,26.25
2023-06-29T08:46:11.929Z,26.04
2023-06-29T08:48:46.002Z,25.89
2023-06-29T08:51:18.552Z,25.72
2023-06-29T08:53:50.565Z,25.63
2023-06-29T08:56:35.867Z,25.61
2023-06-29T08:59:06.457Z,25.56
2023-06-29T09:01:55.711Z,25.51
2023-06-29T09:04:26.515Z,25.48
2023-06-29T09:06:57.569Z,25.45
2023-06-29T09:09:28.359Z,25.37
2023-06-29T09:11:58.787Z,25.38
2023-06-29T09:14:29.915Z,25.43
2023-06-29T09:17:03.478Z,25.49
2023-06-29T09:19:38.471Z,25.51
2023-06-29T09:22:17.373Z,25.55
2023-06-29T09:25:02.845Z,25.57
2023-06-29T09:27:38.083Z,25.60
2023-06-29T09:30:10.899Z,25.59
2023-06-29T09:32:44.003Z,25.60
2023-06-29T09:35:15.126Z,25.61
2023-06-29T09:37:48.222Z,25.48
2023-06-29T09:40:19.465Z,25.34
2023-06-29T09:42:50.108Z,25.19
2023-06-29T09:45:20.413Z,24.99
2023-06-29T09:50:29.380Z,24.96
2023-06-29T09:53:34.779Z,25.00
2023-06-29T09:56:06.068Z,24.99
2023-06-29T09:58:37.144Z,24.98
2023-06-29T10:01:07.568Z,25.01
2023-06-29T10:03:40.878Z,25.09
2023-06-29T10:06:15.846Z,25.11
2023-06-29T10:08:48.865Z,25.04
2023-06-29T10:11:19.459Z,25.03
2023-06-29T10:13:52.664Z,25.08
2023-06-29T10:16:26.860Z,25.14
2023-06-29T10:19:07.668Z,25.20
2023-06-29T10:21:38.289Z,25.23
2023-06-29T10:24:09.981Z,25.30
2023-06-29T10:26:41.177Z,25.38
2023-06-29T10:29:11.984Z,25.55
2023-06-29T10:31:46.195Z,25.76
2023-06-29T10:34:19.399Z,26.00
2023-06-29T10:36:52.855Z,26.29
2023-06-29T10:39:45.118Z,26.72
2023-06-29T10:42:16.733Z,27.44
2023-06-29T10:44:50.836Z,28.19
2023-06-29T10:47:33.422Z,28.90
2023-06-29T10:50:26.485Z,29.68
2023-06-29T10:53:01.632Z,30.13
2023-06-29T10:55:41.936Z,30.37
2023-06-29T10:58:18.096Z,30.09
2023-06-29T11:00:48.702Z,29.38
2023-06-29T11:03:20.253Z,28.81
2023-06-29T11:05:58.185Z,29.00
2023-06-29T11:08:29.260Z,29.05
2023-06-29T11:11:15.978Z,28.89
2023-06-29T11:13:46.693Z,28.51
2023-06-29T11:16:17.355Z,28.24
2023-06-29T11:18:52.486Z,28.07
2023-06-29T11:21:29.347Z,28.00
2023-06-29T11:23:59.658Z,28.07
2023-06-29T11:26:30.841Z,28.20
2023-06-29T11:29:01.166Z,28.14
2023-06-29T11:31:31.500Z,28.09
2023-06-29T11:34:01.708Z,27.92
2023-06-29T11:36:38.194Z,27.79
2023-06-29T11:39:10.972Z,27.57
2023-06-29T11:41:42.450Z,27.27
2023-06-29T11:44:15.281Z,27.11
2023-06-29T11:46:54.786Z,27.19
2023-06-29T11:49:38.982Z,27.30
2023-06-29T11:52:12.774Z,27.39
2023-06-29T11:54:43.221Z,27.50
2023-06-29T11:57:13.725Z,27.68
2023-06-29T11:59:43.941Z,27.86
2023-06-29T12:02:14.160Z,28.24
2023-06-29T12:04:57.891Z,28.71
2023-06-29T12:07:49.479Z,29.08
2023-06-29T12:10:24.105Z,30.01
2023-06-29T12:12:57.430Z,30.75
2023-06-29T12:15:29.582Z,30.98
2023-06-29T12:18:10.901Z,30.67
2023-06-29T12:20:43.238Z,30.59
2023-06-29T12:23:18.684Z,31.08
2023-06-29T12:25:51.476Z,31.20
2023-06-29T12:28:22.992Z,30.78
2023-06-29T12:30:53.180Z,30.24
2023-06-29T12:33:23.414Z,29.63
2023-06-29T12:35:54.965Z,29.22
2023-06-29T12:38:27.696Z,28.87
2023-06-29T12:40:57.907Z,28.63
2023-06-29T12:43:30.880Z,28.49
2023-06-29T12:46:01.632Z,28.88
2023-06-29T12:48:32.032Z,29.56
2023-06-29T12:51:05.078Z,29.60
2023-06-29T12:53:39.547Z,29.26
2023-06-29T12:56:11.416Z,28.82
2023-06-29T12:58:43.804Z,28.46
2023-06-29T13:01:14.318Z,28.03
2023-06-29T13:03:44.802Z,27.80
2023-06-29T13:06:23.165Z,27.60
2023-06-29T13:08:56.824Z,27.40
2023-06-29T13:11:29.427Z,27.18
2023-06-29T13:13:59.879Z,26.92
2023-06-29T13:16:33.969Z,26.73
2023-06-29T13:19:05.462Z,26.55
2023-06-29T13:21:36.377Z,26.45
2023-06-29T13:24:11.708Z,26.40
2023-06-29T13:26:45.095Z,26.41
2023-06-29T13:29:15.428Z,26.44
2023-06-29T13:31:45.689Z,26.44
2023-06-29T13:34:15.823Z,26.44
2023-06-29T13:36:46.134Z,26.49
2023-06-29T13:39:19.126Z,26.61
2023-06-29T13:41:50.784Z,26.81
2023-06-29T13:44:20.997Z,26.94
2023-06-29T13:46:51.829Z,26.95
2023-06-29T13:49:21.995Z,27.05
2023-06-29T13:51:52.364Z,27.16
2023-06-29T13:54:25.027Z,27.24
2023-06-29T13:56:55.245Z,27.17
2023-06-29T13:59:25.542Z,27.12
2023-06-29T14:01:55.853Z,27.12
2023-06-29T14:04:26.607Z,27.25
2023-06-29T14:07:06.756Z,27.38
2023-06-29T14:09:40.333Z,27.55
2023-06-29T14:12:12.420Z,27.64
2023-06-29T14:14:45.956Z,27.60
2023-06-29T14:17:20.705Z,27.40
2023-06-29T14:19:54.626Z,27.24
2023-06-29T14:22:25.095Z,27.13
2023-06-29T14:24:57.929Z,27.10
2023-06-29T14:27:28.191Z,27.02
2023-06-29T14:29:58.363Z,27.02
2023-06-29T14:32:28.534Z,27.06
2023-06-29T14:34:58.707Z,27.09
2023-06-29T14:37:29.976Z,27.16
2023-06-29T14:40:04.973Z,27.26
2023-06-29T14:42:35.306Z,27.45
2023-06-29T14:45:08.708Z,27.48
2023-06-29T14:47:38.876Z,27.44
2023-06-29T14:50:15.397Z,27.48
2023-06-29T14:52:47.093Z,27.49
2023-06-29T14:55:20.262Z,27.46
2023-06-29T14:57:50.685Z,27.40
2023-06-29T15:00:23.693Z,27.33
2023-06-29T15:02:54.134Z,27.29
2023-06-29T15:05:24.551Z,27.35
2023-06-29T15:07:54.756Z,27.32
2023-06-29T15:10:27.948Z,27.28
2023-06-29T15:12:58.433Z,27.25
2023-06-29T15:15:28.639Z,27.22
2023-06-29T15:17:58.882Z,27.06
2023-06-29T15:20:30.396Z,26.87
2023-06-29T15:23:00.591Z,26.83
2023-06-29T15:25:33.337Z,26.89
2023-06-29T15:28:03.581Z,26.93
2023-06-29T15:30:47.302Z,26.86
2023-06-29T15:33:22.840Z,26.81
2023-06-29T15:35:52.942Z,26.74
2023-06-29T15:38:23.668Z,26.78
2023-06-29T15:40:57.068Z,26.83
2023-06-29T15:43:27.918Z,26.87
2023-06-29T15:45:58.092Z,26.86
2023-06-29T15:48:28.422Z,26.84
2023-06-29T15:50:58.610Z,26.75
2023-06-29T15:53:29.015Z,26.69
2023-06-29T15:56:01.739Z,26.60
2023-06-29T15:58:31.962Z,26.54
2023-06-29T16:01:02.274Z,26.49
2023-06-29T16:03:32.609Z,26.45
2023-06-29T16:06:02.793Z,26.41
2023-06-29T16:08:33.190Z,26.37
2023-06-29T16:11:06.085Z,26.30
2023-06-29T16:13:36.288Z,26.27
2023-06-29T16:16:09.207Z,26.24
2023-06-29T16:18:39.378Z,26.19
2023-06-29T16:21:13.659Z,26.18
2023-06-29T16:23:48.050Z,26.17
2023-06-29T16:26:23.454Z,26.17
2023-06-29T16:28:54.505Z,26.18
2023-06-29T16:31:25.264Z,26.22
2023-06-29T16:33:56.446Z,26.26
2023-06-29T16:36:26.913Z,26.29
2023-06-29T16:38:57.344Z,26.35
2023-06-29T16:41:30.094Z,26.37
2023-06-29T16:44:00.371Z,26.40
2023-06-29T16:46:30.557Z,26.42
2023-06-29T16:49:01.747Z,26.45
2023-06-29T16:51:33.046Z,26.45
2023-06-29T16:54:03.488Z,26.46
2023-06-29T16:56:36.757Z,26.47
2023-06-29T16:59:07.023Z,26.47
2023-06-29T17:01:37.322Z,26.47
2023-06-29T17:04:13.958Z,26.42
2023-06-29T17:06:44.307Z,26.38
2023-06-29T17:09:23.692Z,26.32
2023-06-29T17:11:56.652Z,26.28
2023-06-29T17:14:31.618Z,26.24
2023-06-29T17:17:06.873Z,26.15
2023-06-29T17:19:40.150Z,26.11
2023-06-29T17:22:11.205Z,26.08
2023-06-29T17:24:42.941Z,26.03
2023-06-29T17:27:15.780Z,25.97
2023-06-29T17:29:46.043Z,25.98
2023-06-29T17:32:16.231Z,25.94
2023-06-29T17:34:46.547Z,25.95
2023-06-29T17:37:16.693Z,25.95
2023-06-29T17:39:47.015Z,25.95
2023-06-29T17:42:27.032Z,25.93
2023-06-29T17:44:57.175Z,25.88
2023-06-29T17:47:27.444Z,25.83
2023-06-29T17:49:57.778Z,25.81
2023-06-29T17:52:28.020Z,25.79
2023-06-29T17:55:00.161Z,25.79
2023-06-29T17:57:36.265Z,25.75
2023-06-29T18:00:07.673Z,25.72
2023-06-29T18:02:38.331Z,25.70
2023-06-29T18:05:09.204Z,25.67
2023-06-29T18:07:39.703Z,25.64
2023-06-29T18:10:11.058Z,25.62
2023-06-29T18:12:45.034Z,25.62
2023-06-29T18:15:15.614Z,25.60
2023-06-29T18:17:48.613Z,25.58
2023-06-29T18:20:33.589Z,25.53
2023-06-29T18:23:03.918Z,25.48
2023-06-29T18:25:35.654Z,25.42
2023-06-29T18:28:11.383Z,25.39
2023-06-29T18:30:43.363Z,25.36
2023-06-29T18:33:13.505Z,25.32
2023-06-29T18:35:47.262Z,25.27
2023-06-29T18:38:17.643Z,25.21
2023-06-29T18:40:47.878Z,25.15
2023-06-29T18:43:22.077Z,25.10
2023-06-29T18:45:54.623Z,25.06
2023-06-29T18:48:24.947Z,25.00
2023-06-29T18:50:55.099Z,24.96
2023-06-29T18:53:25.300Z,24.91
2023-06-29T18:55:55.669Z,24.89
2023-06-29T18:58:31.994Z,24.87
2023-06-29T19:01:05.169Z,24.83
2023-06-29T19:03:38.645Z,24.81
2023-06-29T19:06:09.092Z,24.78
2023-06-29T19:08:45.450Z,24.76
2023-06-29T19:11:15.717Z,24.72
2023-06-29T19:13:49.557Z,24.67
2023-06-29T19:16:20.017Z,24.63
2023-06-29T19:18:50.110Z,24.58
2023-06-29T19:21:20.226Z,24.55
2023-06-29T19:23:50.329Z,24.51
2023-06-29T19:26:20.443Z,24.48
2023-06-29T19:28:55.671Z,24.45
2023-06-29T19:31:26.071Z,24.42
2023-06-29T19:33:58.354Z,24.40
2023-06-29T19:36:29.092Z,24.37
2023-06-29T19:38:59.431Z,24.34
2023-06-29T19:41:29.571Z,24.30
2023-06-29T19:44:02.509Z,24.26
2023-06-29T19:46:33.009Z,24.19
2023-06-29T19:49:03.331Z,24.13
2023-06-29T19:51:35.307Z,24.04
2023-06-29T19:54:05.659Z,23.98
2023-06-29T19:56:36.905Z,23.92
2023-06-29T19:59:11.731Z,23.85
2023-06-29T20:01:41.891Z,23.80
2023-06-29T20:04:12.081Z,23.74
2023-06-29T20:06:42.314Z,23.68
2023-06-29T20:09:12.404Z,23.63
2023-06-29T20:11:42.753Z,23.57
2023-06-29T20:14:15.615Z,23.53
2023-06-29T20:16:45.885Z,23.50
2023-06-29T20:19:16.053Z,23.46
2023-06-29T20:21:46.228Z,23.40
2023-06-29T20:24:16.555Z,23.33
2023-06-29T20:26:47.677Z,23.29
2023-06-29T20:29:20.427Z,23.30
2023-06-29T20:31:50.621Z,23.28
2023-06-29T20:34:20.791Z,23.24
2023-06-29T20:36:51.559Z,23.21
2023-06-29T20:39:23.673Z,23.17
2023-06-29T20:41:54.064Z,23.13
2023-06-29T20:44:31.048Z,23.10
2023-06-29T20:47:01.742Z,23.08
2023-06-29T20:49:31.936Z,23.04
2023-06-29T20:52:02.697Z,23.03
2023-06-29T20:54:33.385Z,23.00
2023-06-29T20:57:03.758Z,22.98
2023-06-29T20:59:36.453Z,22.97
2023-06-29T21:02:07.741Z,22.94
2023-06-29T21:04:38.423Z,22.90
2023-06-29T21:07:09.880Z,22.84
2023-06-29T21:09:40.707Z,22.81
2023-06-29T21:12:14.134Z,22.75
2023-06-29T21:14:47.802Z,22.70
2023-06-29T21:17:18.700Z,22.69
2023-06-29T21:19:49.577Z,22.68
2023-06-29T21:22:20.521Z,22.65
2023-06-29T21:24:51.699Z,22.67
2023-06-29T21:27:23.127Z,22.67
2023-06-29T21:29:56.945Z,22.69
2023-06-29T21:32:27.586Z,22.69
2023-06-29T21:34:58.255Z,22.69
2023-06-29T21:37:28.915Z,22.70
2023-06-29T21:39:59.111Z,22.70
2023-06-29T21:42:31.126Z,22.70
2023-06-29T21:45:04.062Z,22.73
2023-06-29T21:47:34.636Z,22.74
2023-06-29T21:50:04.912Z,22.74
2023-06-29T21:52:35.075Z,22.73
2023-06-29T21:55:05.328Z,22.74
2023-06-29T21:57:35.468Z,22.74
2023-06-29T22:00:10.904Z,22.73
2023-06-29T22:02:47.082Z,22.73
2023-06-29T22:05:17.476Z,22.74
2023-06-29T22:07:47.865Z,22.75
2023-06-29T22:10:18.222Z,22.73
2023-06-29T22:12:49.484Z,22.74
2023-06-29T22:15:22.780Z,22.73
2023-06-29T22:17:53.040Z,22.71
2023-06-29T22:20:24.926Z,22.69
2023-06-29T22:22:55.129Z,22.62
2023-06-29T22:25:27.572Z,22.55
2023-06-29T22:27:59.578Z,22.53
2023-06-29T22:30:32.509Z,22.55
2023-06-29T22:33:02.833Z,22.55
2023-06-29T22:35:33.903Z,22.53
2023-06-29T22:38:05.593Z,22.48
2023-06-29T22:40:35.681Z,22.45
2023-06-29T22:43:05.926Z,22.43
2023-06-29T22:45:38.874Z,22.43
2023-06-29T22:48:09.420Z,22.46
2023-06-29T22:50:39.590Z,22.46
2023-06-29T22:53:09.705Z,22.47
2023-06-29T22:55:39.810Z,22.48
2023-06-29T22:58:10.112Z,22.48
2023-06-29T23:00:42.821Z,22.49
2023-06-29T23:03:13.374Z,22.49
2023-06-29T23:05:43.969Z,22.48
2023-06-29T23:08:14.573Z,22.49
2023-06-29T23:10:44.938Z,22.49
2023-06-29T23:13:15.807Z,22.48
2023-06-29T23:15:49.487Z,22.47
2023-06-29T23:18:19.961Z,22.46
2023-06-29T23:20:50.094Z,22.43
2023-06-29T23:23:26.350Z,22.39
2023-06-29T23:25:56.513Z,22.34
2023-06-29T23:28:26.946Z,22.32
2023-06-29T23:30:59.773Z,22.30
2023-06-29T23:33:29.938Z,22.27
2023-06-29T23:36:00.042Z,22.27
2023-06-29T23:38:30.182Z,22.27
2023-06-29T23:41:00.807Z,22.26
2023-06-29T23:43:31.067Z,22.23
2023-06-29T23:46:03.855Z,22.23
2023-06-29T23:48:34.087Z,22.22
2023-06-29T23:51:05.401Z,22.22
2023-06-29T23:53:35.640Z,22.21
2023-06-29T23:56:06.015Z,22.20
2023-06-29T23:58:36.328Z,22.19
